Buffalo, WY

4:33 PM MDT on August 30, 2014 (GMT -0600)
Esponda Ranch | Change Station
CLOSE
Current Station
Personal Weather Station
Location: Buffalo, WY
Elevation: 4665 ft
Nearby Weather Stations

Elev 4665 ft 44.32 °N, 106.67 °W | Updated 3 minutes ago

Partly Cloudy
Partly Cloudy
69.4 °F
Feels Like 69.4 °F
N
13.0
Wind Variable Wind from NNW
Gusts 21.0 mph

Today
High -- | Low -- °F
--% Chance of Precip.
Yesterday
High -- | Low -- °F
Precip. -- in
6:27 AM 7:46 PM
Waxing Crescent, 25% visible
Pressure 29.68 in
Visibility 10.0 miles
Clouds Few 12000 ft
Dew Point 53 °F
Humidity 56%
Rainfall 0.00 in
Snow Depth Not available.
UV 5 out of 12
Pollen 8.50 out of 12
Air Quality Not available.
Flu Activity Not available.
METAR KBYG 302153Z AUTO 35017G24KT 10SM FEW120 21/09 A2983 RMK AO2 LTG DSNT NW SLP049 T02110094

More Conditions Fewer Conditions

Pressure 29.68 in
Visibility 10.0 miles
Clouds Few 12000 ft
Dew Point 53 °F
Humidity 56%
Rainfall 0.00 in
Snow Depth Not available.
UV 5 out of 12
Pollen 8.50 out of 12
Air Quality Not available.
Flu Activity Not available.
METAR KBYG 302153Z AUTO 35017G24KT 10SM FEW120 21/09 A2983 RMK AO2 LTG DSNT NW SLP049 T02110094

More Conditions Fewer Conditions

10-Day Weather Forecast

Almanac

Astronomy

Aug. 30, 2014 Rise Set
Actual Time 6:27 AM MDT 7:46 PM MDT
Civil Twilight 5:57 AM MDT 8:16 PM MDT
Nautical Twilight 5:21 AM MDT 8:52 PM MDT
Astronomical Twilight 4:42 AM MDT 9:30 PM MDT
Moon 11:30 AM MDT 10:09 PM MDT
Length of Visible Light 14h 19m
Length of Day
13h 19m
Tomorrow will be 2m 56s shorter.
Waxing Crescent, 25% of the Moon is Illuminated
Today
Waxing Crescent
Sep 2
First Quarter
Sep 8
Full
Sep 15
Last Quarter
Sep 24
New

Today's Extremes

State Highs State Lows

Community

WunderPhotos

Upload Photos

1,748,657 photos uploaded!

WunderBlogs® & News

Nearby

Snow Depth

Station Depth Elevation
Bone Springs Divide 0 in 9350 ft
Burgess Junction 0 in 7880 ft
Middle Powder 0 in 7760 ft
Cole Canyon 0 in 5910 ft
Marquette 0 in 8760 ft

Earthquake Activity

City Distance Mag. Time & Date
No recent earthquake activity has been reported nearby.
Minimum magnitude displayed is 2.5.

Coastal Water Temperatures

Place Temperature
No Stations Reporting

Nearby Weather Stations